sensor_id;sensor_type;location;lat;lon;timestamp;P1;durP1;ratioP1;P2;durP2;ratioP2
74922;SDS011;64715;44.760;37.678;2023-03-01T00:00:23;16.35;;;5.43;;
74922;SDS011;64715;44.760;37.678;2023-03-01T00:01:26;16.75;;;5.93;;
74922;SDS011;64715;44.760;37.678;2023-03-01T00:02:29;16.40;;;5.45;;
74922;SDS011;64715;44.760;37.678;2023-03-01T00:03:30;13.50;;;4.43;;
74922;SDS011;64715;44.760;37.678;2023-03-01T00:04:31;16.92;;;5.53;;
74922;SDS011;64715;44.760;37.678;2023-03-01T00:05:32;15.48;;;4.72;;
74922;SDS011;64715;44.760;37.678;2023-03-01T00:06:33;16.70;;;5.20;;
74922;SDS011;64715;44.760;37.678;2023-03-01T00:07:34;10.38;;;3.67;;
74922;SDS011;64715;44.760;37.678;2023-03-01T00:08:34;15.38;;;5.00;;
74922;SDS011;64715;44.760;37.678;2023-03-01T00:09:36;15.90;;;5.25;;
74922;SDS011;64715;44.760;37.678;2023-03-01T00:10:37;14.43;;;5.13;;
74922;SDS011;64715;44.760;37.678;2023-03-01T00:11:39;17.13;;;6.18;;
74922;SDS011;64715;44.760;37.678;2023-03-01T00:12:40;17.90;;;5.05;;
74922;SDS011;64715;44.760;37.678;2023-03-01T00:13:41;15.20;;;5.20;;
74922;SDS011;64715;44.760;37.678;2023-03-01T00:14:43;15.02;;;5.35;;
74922;SDS011;64715;44.760;37.678;2023-03-01T00:15:44;13.88;;;4.65;;
74922;SDS011;64715;44.760;37.678;2023-03-01T00:16:45;15.48;;;5.32;;
74922;SDS011;64715;44.760;37.678;2023-03-01T00:17:46;17.33;;;5.60;;
74922;SDS011;64715;44.760;37.678;2023-03-01T00:18:47;17.23;;;5.03;;
74922;SDS011;64715;44.760;37.678;2023-03-01T00:19:48;16.75;;;5.43;;
74922;SDS011;64715;44.760;37.678;2023-03-01T00:20:50;16.33;;;5.67;;
74922;SDS011;64715;44.760;37.678;2023-03-01T00:21:53;16.63;;;5.45;;
74922;SDS011;64715;44.760;37.678;2023-03-01T00:22:54;17.83;;;5.30;;
74922;SDS011;64715;44.760;37.678;2023-03-01T00:23:55;15.60;;;5.57;;
74922;SDS011;64715;44.760;37.678;2023-03-01T00:24:56;15.20;;;5.30;;
74922;SDS011;64715;44.760;37.678;2023-03-01T00:25:57;17.27;;;5.40;;
74922;SDS011;64715;44.760;37.678;2023-03-01T00:26:58;16.58;;;5.32;;
74922;SDS011;64715;44.760;37.678;2023-03-01T00:28:00;15.15;;;4.53;;
74922;SDS011;64715;44.760;37.678;2023-03-01T00:29:01;17.13;;;5.70;;
74922;SDS011;64715;44.760;37.678;2023-03-01T00:30:02;18.15;;;5.55;;
74922;SDS011;64715;44.760;37.678;2023-03-01T00:31:07;16.10;;;5.75;;
74922;SDS011;64715;44.760;37.678;2023-03-01T00:32:19;15.52;;;5.13;;
74922;SDS011;64715;44.760;37.678;2023-03-01T00:33:20;13.30;;;4.57;;
74922;SDS011;64715;44.760;37.678;2023-03-01T00:34:21;15.98;;;6.03;;
74922;SDS011;64715;44.760;37.678;2023-03-01T00:35:22;16.52;;;5.75;;
74922;SDS011;64715;44.760;37.678;2023-03-01T00:36:24;17.50;;;6.20;;
74922;SDS011;64715;44.760;37.678;2023-03-01T00:37:27;18.10;;;6.05;;
74922;SDS011;64715;44.760;37.678;2023-03-01T00:38:28;21.67;;;5.95;;
74922;SDS011;64715;44.760;37.678;2023-03-01T00:39:29;16.87;;;5.30;;
74922;SDS011;64715;44.760;37.678;2023-03-01T00:40:32;15.50;;;5.18;;
74922;SDS011;64715;44.760;37.678;2023-03-01T00:41:34;18.23;;;5.65;;
74922;SDS011;64715;44.760;37.678;2023-03-01T00:42:36;12.07;;;4.10;;
74922;SDS011;64715;44.760;37.678;2023-03-01T00:43:37;19.65;;;5.90;;
74922;SDS011;64715;44.760;37.678;2023-03-01T00:44:38;17.70;;;5.78;;
74922;SDS011;64715;44.760;37.678;2023-03-01T00:45:39;17.00;;;5.15;;
74922;SDS011;64715;44.760;37.678;2023-03-01T00:46:41;16.77;;;6.03;;
74922;SDS011;64715;44.760;37.678;2023-03-01T00:47:42;20.20;;;6.00;;
74922;SDS011;64715;44.760;37.678;2023-03-01T00:48:44;13.63;;;4.68;;
74922;SDS011;64715;44.760;37.678;2023-03-01T00:49:45;18.35;;;5.90;;
74922;SDS011;64715;44.760;37.678;2023-03-01T00:50:46;15.60;;;5.80;;
74922;SDS011;64715;44.760;37.678;2023-03-01T00:51:47;15.05;;;5.05;;
74922;SDS011;64715;44.760;37.678;2023-03-01T00:52:51;19.40;;;6.05;;
74922;SDS011;64715;44.760;37.678;2023-03-01T00:53:54;15.77;;;4.97;;
74922;SDS011;64715;44.760;37.678;2023-03-01T00:54:57;19.23;;;6.07;;
74922;SDS011;64715;44.760;37.678;2023-03-01T00:55:58;17.23;;;5.97;;
74922;SDS011;64715;44.760;37.678;2023-03-01T00:56:59;15.27;;;4.82;;
74922;SDS011;64715;44.760;37.678;2023-03-01T00:58:00;18.50;;;6.80;;
74922;SDS011;64715;44.760;37.678;2023-03-01T00:59:02;19.25;;;5.97;;
74922;SDS011;64715;44.760;37.678;2023-03-01T01:00:04;15.43;;;4.82;;
74922;SDS011;64715;44.760;37.678;2023-03-01T01:01:16;18.50;;;6.30;;
74922;SDS011;64715;44.760;37.678;2023-03-01T01:02:20;16.43;;;5.47;;
74922;SDS011;64715;44.760;37.678;2023-03-01T01:03:22;19.75;;;5.60;;
74922;SDS011;64715;44.760;37.678;2023-03-01T01:04:25;20.63;;;6.18;;
74922;SDS011;64715;44.760;37.678;2023-03-01T01:05:26;19.02;;;6.07;;
74922;SDS011;64715;44.760;37.678;2023-03-01T01:06:31;16.83;;;5.78;;
74922;SDS011;64715;44.760;37.678;2023-03-01T01:07:34;17.73;;;5.70;;
74922;SDS011;64715;44.760;37.678;2023-03-01T01:08:36;17.55;;;5.68;;
74922;SDS011;64715;44.760;37.678;2023-03-01T01:09:37;16.17;;;5.20;;
74922;SDS011;64715;44.760;37.678;2023-03-01T01:10:38;16.73;;;5.50;;
74922;SDS011;64715;44.760;37.678;2023-03-01T01:11:39;17.00;;;5.85;;
74922;SDS011;64715;44.760;37.678;2023-03-01T01:12:40;18.17;;;5.70;;
74922;SDS011;64715;44.760;37.678;2023-03-01T01:13:41;17.80;;;6.28;;
74922;SDS011;64715;44.760;37.678;2023-03-01T01:14:44;18.85;;;6.15;;
74922;SDS011;64715;44.760;37.678;2023-03-01T01:15:46;18.90;;;6.57;;
74922;SDS011;64715;44.760;37.678;2023-03-01T01:16:47;18.50;;;6.83;;
74922;SDS011;64715;44.760;37.678;2023-03-01T01:17:48;17.95;;;6.53;;
74922;SDS011;64715;44.760;37.678;2023-03-01T01:18:49;19.20;;;6.07;;
74922;SDS011;64715;44.760;37.678;2023-03-01T01:19:50;15.57;;;5.45;;
74922;SDS011;64715;44.760;37.678;2023-03-01T01:20:52;19.00;;;6.28;;
74922;SDS011;64715;44.760;37.678;2023-03-01T01:21:53;18.88;;;5.55;;
74922;SDS011;64715;44.760;37.678;2023-03-01T01:22:54;17.98;;;5.90;;
74922;SDS011;64715;44.760;37.678;2023-03-01T01:23:55;18.00;;;5.83;;
74922;SDS011;64715;44.760;37.678;2023-03-01T01:24:56;19.42;;;5.97;;
74922;SDS011;64715;44.760;37.678;2023-03-01T01:26:03;16.17;;;5.93;;
74922;SDS011;64715;44.760;37.678;2023-03-01T01:27:05;15.30;;;5.90;;
74922;SDS011;64715;44.760;37.678;2023-03-01T01:28:07;15.27;;;5.40;;
74922;SDS011;64715;44.760;37.678;2023-03-01T01:29:08;19.13;;;5.75;;
74922;SDS011;64715;44.760;37.678;2023-03-01T01:30:10;18.60;;;6.03;;
74922;SDS011;64715;44.760;37.678;2023-03-01T01:31:12;17.00;;;5.72;;
74922;SDS011;64715;44.760;37.678;2023-03-01T01:32:13;18.63;;;6.05;;
74922;SDS011;64715;44.760;37.678;2023-03-01T01:33:15;17.03;;;5.67;;
74922;SDS011;64715;44.760;37.678;2023-03-01T01:34:18;18.52;;;6.20;;
74922;SDS011;64715;44.760;37.678;2023-03-01T01:35:20;19.92;;;6.45;;
74922;SDS011;64715;44.760;37.678;2023-03-01T01:36:21;17.75;;;5.25;;
74922;SDS011;64715;44.760;37.678;2023-03-01T01:37:22;17.55;;;5.40;;
74922;SDS011;64715;44.760;37.678;2023-03-01T01:38:31;15.52;;;5.63;;
74922;SDS011;64715;44.760;37.678;2023-03-01T01:39:35;17.98;;;4.85;;
74922;SDS011;64715;44.760;37.678;2023-03-01T01:40:42;15.77;;;5.20;;
74922;SDS011;64715;44.760;37.678;2023-03-01T01:41:47;15.40;;;5.07;;
74922;SDS011;64715;44.760;37.678;2023-03-01T01:42:48;15.60;;;5.65;;
74922;SDS011;64715;44.760;37.678;2023-03-01T01:43:50;16.67;;;5.68;;
74922;SDS011;64715;44.760;37.678;2023-03-01T01:45:26;17.30;;;5.40;;
74922;SDS011;64715;44.760;37.678;2023-03-01T01:46:33;18.88;;;6.03;;
74922;SDS011;64715;44.760;37.678;2023-03-01T01:47:37;15.77;;;4.95;;
74922;SDS011;64715;44.760;37.678;2023-03-01T01:48:43;16.98;;;6.22;;
74922;SDS011;64715;44.760;37.678;2023-03-01T01:49:49;17.33;;;6.28;;
74922;SDS011;64715;44.760;37.678;2023-03-01T01:50:58;18.17;;;5.80;;
74922;SDS011;64715;44.760;37.678;2023-03-01T01:52:08;17.30;;;5.40;;
74922;SDS011;64715;44.760;37.678;2023-03-01T01:53:17;17.13;;;5.07;;
74922;SDS011;64715;44.760;37.678;2023-03-01T01:54:24;17.73;;;5.70;;
74922;SDS011;64715;44.760;37.678;2023-03-01T01:55:29;18.85;;;5.93;;
74922;SDS011;64715;44.760;37.678;2023-03-01T01:56:31;16.83;;;5.57;;
74922;SDS011;64715;44.760;37.678;2023-03-01T01:57:36;17.23;;;5.90;;
74922;SDS011;64715;44.760;37.678;2023-03-01T01:58:44;16.50;;;5.50;;
74922;SDS011;64715;44.760;37.678;2023-03-01T01:59:49;15.07;;;5.10;;
74922;SDS011;64715;44.760;37.678;2023-03-01T02:00:53;16.77;;;5.25;;
74922;SDS011;64715;44.760;37.678;2023-03-01T02:01:55;17.05;;;5.78;;
74922;SDS011;64715;44.760;37.678;2023-03-01T02:03:01;16.33;;;5.33;;
74922;SDS011;64715;44.760;37.678;2023-03-01T02:04:05;16.05;;;5.30;;
74922;SDS011;64715;44.760;37.678;2023-03-01T02:05:14;16.90;;;5.88;;
74922;SDS011;64715;44.760;37.678;2023-03-01T02:06:39;16.75;;;5.63;;
74922;SDS011;64715;44.760;37.678;2023-03-01T02:07:45;20.48;;;6.32;;
74922;SDS011;64715;44.760;37.678;2023-03-01T02:08:48;17.67;;;6.28;;
74922;SDS011;64715;44.760;37.678;2023-03-01T02:09:52;18.52;;;6.22;;
74922;SDS011;64715;44.760;37.678;2023-03-01T02:10:54;19.65;;;7.00;;
74922;SDS011;64715;44.760;37.678;2023-03-01T02:11:57;20.23;;;7.22;;
74922;SDS011;64715;44.760;37.678;2023-03-01T02:12:59;18.58;;;6.80;;
74922;SDS011;64715;44.760;37.678;2023-03-01T02:14:02;20.00;;;6.80;;
74922;SDS011;64715;44.760;37.678;2023-03-01T02:15:03;20.05;;;6.90;;
74922;SDS011;64715;44.760;37.678;2023-03-01T02:16:05;20.08;;;6.50;;
74922;SDS011;64715;44.760;37.678;2023-03-01T02:17:11;18.10;;;5.60;;
74922;SDS011;64715;44.760;37.678;2023-03-01T02:18:14;19.13;;;6.05;;
74922;SDS011;64715;44.760;37.678;2023-03-01T02:19:26;15.80;;;5.28;;
74922;SDS011;64715;44.760;37.678;2023-03-01T02:23:03;18.10;;;5.13;;
74922;SDS011;64715;44.760;37.678;2023-03-01T02:25:32;17.42;;;5.43;;
74922;SDS011;64715;44.760;37.678;2023-03-01T02:26:42;15.45;;;5.47;;
74922;SDS011;64715;44.760;37.678;2023-03-01T02:29:15;16.38;;;5.70;;
74922;SDS011;64715;44.760;37.678;2023-03-01T02:30:18;16.25;;;5.28;;
74922;SDS011;64715;44.760;37.678;2023-03-01T02:31:20;15.88;;;5.65;;
74922;SDS011;64715;44.760;37.678;2023-03-01T02:32:41;17.55;;;5.53;;
74922;SDS011;64715;44.760;37.678;2023-03-01T02:33:42;15.45;;;5.22;;
74922;SDS011;64715;44.760;37.678;2023-03-01T02:34:45;16.73;;;5.60;;
74922;SDS011;64715;44.760;37.678;2023-03-01T02:35:46;16.80;;;5.68;;
74922;SDS011;64715;44.760;37.678;2023-03-01T02:36:48;18.13;;;5.72;;
74922;SDS011;64715;44.760;37.678;2023-03-01T02:37:52;16.38;;;6.05;;
74922;SDS011;64715;44.760;37.678;2023-03-01T02:38:57;16.02;;;5.15;;
74922;SDS011;64715;44.760;37.678;2023-03-01T02:40:02;15.88;;;5.40;;
74922;SDS011;64715;44.760;37.678;2023-03-01T02:41:06;17.98;;;6.25;;
74922;SDS011;64715;44.760;37.678;2023-03-01T02:42:13;15.90;;;5.90;;
74922;SDS011;64715;44.760;37.678;2023-03-01T02:43:18;15.45;;;4.97;;
74922;SDS011;64715;44.760;37.678;2023-03-01T02:44:21;17.37;;;5.43;;
74922;SDS011;64715;44.760;37.678;2023-03-01T02:45:24;15.38;;;5.30;;
74922;SDS011;64715;44.760;37.678;2023-03-01T02:46:26;16.13;;;5.15;;
74922;SDS011;64715;44.760;37.678;2023-03-01T02:47:28;16.77;;;5.75;;
74922;SDS011;64715;44.760;37.678;2023-03-01T02:48:38;16.48;;;5.70;;
74922;SDS011;64715;44.760;37.678;2023-03-01T02:49:53;14.38;;;5.10;;
74922;SDS011;64715;44.760;37.678;2023-03-01T02:51:03;16.70;;;5.70;;
74922;SDS011;64715;44.760;37.678;2023-03-01T02:53:53;15.43;;;5.10;;
74922;SDS011;64715;44.760;37.678;2023-03-01T02:56:09;17.70;;;5.65;;
74922;SDS011;64715;44.760;37.678;2023-03-01T02:57:14;17.63;;;5.47;;
74922;SDS011;64715;44.760;37.678;2023-03-01T02:58:15;16.60;;;5.53;;
74922;SDS011;64715;44.760;37.678;2023-03-01T02:59:16;17.50;;;5.60;;
74922;SDS011;64715;44.760;37.678;2023-03-01T03:00:23;16.98;;;5.70;;
74922;SDS011;64715;44.760;37.678;2023-03-01T03:01:29;19.88;;;5.90;;
74922;SDS011;64715;44.760;37.678;2023-03-01T03:02:41;16.55;;;5.88;;
74922;SDS011;64715;44.760;37.678;2023-03-01T03:03:48;16.38;;;6.00;;
74922;SDS011;64715;44.760;37.678;2023-03-01T03:04:49;17.47;;;5.77;;
74922;SDS011;64715;44.760;37.678;2023-03-01T03:05:50;17.63;;;6.38;;
74922;SDS011;64715;44.760;37.678;2023-03-01T03:06:51;19.00;;;6.20;;
74922;SDS011;64715;44.760;37.678;2023-03-01T03:07:52;17.15;;;5.85;;
74922;SDS011;64715;44.760;37.678;2023-03-01T03:08:53;19.70;;;6.22;;
74922;SDS011;64715;44.760;37.678;2023-03-01T03:09:54;18.65;;;6.75;;
74922;SDS011;64715;44.760;37.678;2023-03-01T03:10:55;17.87;;;6.23;;
74922;SDS011;64715;44.760;37.678;2023-03-01T03:11:56;39.50;;;7.57;;
74922;SDS011;64715;44.760;37.678;2023-03-01T03:13:02;75.57;;;7.85;;
74922;SDS011;64715;44.760;37.678;2023-03-01T03:14:05;19.35;;;6.10;;
74922;SDS011;64715;44.760;37.678;2023-03-01T03:15:07;22.55;;;6.28;;
74922;SDS011;64715;44.760;37.678;2023-03-01T03:16:09;18.60;;;6.35;;
74922;SDS011;64715;44.760;37.678;2023-03-01T03:17:10;15.60;;;5.63;;
74922;SDS011;64715;44.760;37.678;2023-03-01T03:18:12;18.63;;;5.70;;
74922;SDS011;64715;44.760;37.678;2023-03-01T03:19:15;17.20;;;6.00;;
74922;SDS011;64715;44.760;37.678;2023-03-01T03:20:19;18.10;;;6.07;;
74922;SDS011;64715;44.760;37.678;2023-03-01T03:21:21;17.23;;;5.90;;
74922;SDS011;64715;44.760;37.678;2023-03-01T03:22:22;17.20;;;6.30;;
74922;SDS011;64715;44.760;37.678;2023-03-01T03:23:24;18.15;;;6.50;;
74922;SDS011;64715;44.760;37.678;2023-03-01T03:24:26;19.35;;;5.97;;
74922;SDS011;64715;44.760;37.678;2023-03-01T03:25:38;20.05;;;6.38;;
74922;SDS011;64715;44.760;37.678;2023-03-01T03:26:39;17.67;;;6.05;;
74922;SDS011;64715;44.760;37.678;2023-03-01T03:27:42;21.80;;;6.80;;
74922;SDS011;64715;44.760;37.678;2023-03-01T03:28:44;17.77;;;6.13;;
74922;SDS011;64715;44.760;37.678;2023-03-01T03:29:47;20.95;;;6.57;;
74922;SDS011;64715;44.760;37.678;2023-03-01T03:30:48;16.92;;;5.57;;
74922;SDS011;64715;44.760;37.678;2023-03-01T03:31:50;23.77;;;6.57;;
74922;SDS011;64715;44.760;37.678;2023-03-01T03:32:51;19.02;;;6.38;;
74922;SDS011;64715;44.760;37.678;2023-03-01T03:33:55;19.58;;;6.30;;
74922;SDS011;64715;44.760;37.678;2023-03-01T03:34:57;19.77;;;5.90;;
74922;SDS011;64715;44.760;37.678;2023-03-01T03:35:58;18.33;;;6.57;;
74922;SDS011;64715;44.760;37.678;2023-03-01T03:36:59;17.20;;;5.95;;
74922;SDS011;64715;44.760;37.678;2023-03-01T03:38:00;19.77;;;6.25;;
74922;SDS011;64715;44.760;37.678;2023-03-01T03:39:06;18.70;;;6.70;;
74922;SDS011;64715;44.760;37.678;2023-03-01T03:40:07;18.35;;;5.78;;
74922;SDS011;64715;44.760;37.678;2023-03-01T03:41:15;19.50;;;6.20;;
74922;SDS011;64715;44.760;37.678;2023-03-01T03:42:17;19.60;;;6.47;;
74922;SDS011;64715;44.760;37.678;2023-03-01T03:43:19;17.33;;;5.77;;
74922;SDS011;64715;44.760;37.678;2023-03-01T03:44:22;19.83;;;6.32;;
74922;SDS011;64715;44.760;37.678;2023-03-01T03:45:23;17.75;;;6.15;;
74922;SDS011;64715;44.760;37.678;2023-03-01T03:46:24;19.13;;;6.85;;
74922;SDS011;64715;44.760;37.678;2023-03-01T03:47:26;20.20;;;6.20;;
74922;SDS011;64715;44.760;37.678;2023-03-01T03:48:27;19.33;;;6.72;;
74922;SDS011;64715;44.760;37.678;2023-03-01T03:49:28;20.75;;;6.63;;
74922;SDS011;64715;44.760;37.678;2023-03-01T03:50:29;18.40;;;6.53;;
74922;SDS011;64715;44.760;37.678;2023-03-01T03:51:30;21.92;;;7.45;;
74922;SDS011;64715;44.760;37.678;2023-03-01T03:52:31;21.23;;;7.32;;
74922;SDS011;64715;44.760;37.678;2023-03-01T03:53:32;20.52;;;6.97;;
74922;SDS011;64715;44.760;37.678;2023-03-01T03:54:34;20.45;;;6.68;;
74922;SDS011;64715;44.760;37.678;2023-03-01T03:55:35;19.83;;;6.90;;
74922;SDS011;64715;44.760;37.678;2023-03-01T03:56:39;19.27;;;6.78;;
74922;SDS011;64715;44.760;37.678;2023-03-01T03:57:41;30.07;;;6.80;;
74922;SDS011;64715;44.760;37.678;2023-03-01T03:58:42;22.45;;;7.50;;
74922;SDS011;64715;44.760;37.678;2023-03-01T03:59:43;20.38;;;6.75;;
74922;SDS011;64715;44.760;37.678;2023-03-01T04:00:44;19.30;;;6.30;;
74922;SDS011;64715;44.760;37.678;2023-03-01T04:01:46;17.92;;;6.63;;
74922;SDS011;64715;44.760;37.678;2023-03-01T04:02:47;18.67;;;6.35;;
74922;SDS011;64715;44.760;37.678;2023-03-01T04:03:49;16.08;;;6.05;;
74922;SDS011;64715;44.760;37.678;2023-03-01T04:04:54;17.53;;;6.07;;
74922;SDS011;64715;44.760;37.678;2023-03-01T04:05:56;17.52;;;5.80;;
74922;SDS011;64715;44.760;37.678;2023-03-01T04:07:01;17.08;;;6.30;;
74922;SDS011;64715;44.760;37.678;2023-03-01T04:08:02;19.05;;;6.65;;
74922;SDS011;64715;44.760;37.678;2023-03-01T04:09:07;19.77;;;6.95;;
74922;SDS011;64715;44.760;37.678;2023-03-01T04:10:10;19.17;;;6.63;;
74922;SDS011;64715;44.760;37.678;2023-03-01T04:11:15;19.37;;;6.37;;
74922;SDS011;64715;44.760;37.678;2023-03-01T04:12:28;16.88;;;6.22;;
74922;SDS011;64715;44.760;37.678;2023-03-01T04:13:29;18.20;;;6.50;;
74922;SDS011;64715;44.760;37.678;2023-03-01T04:14:30;19.17;;;6.90;;
74922;SDS011;64715;44.760;37.678;2023-03-01T04:15:31;20.40;;;7.00;;
74922;SDS011;64715;44.760;37.678;2023-03-01T04:16:33;21.45;;;6.88;;
74922;SDS011;64715;44.760;37.678;2023-03-01T04:17:34;24.43;;;7.30;;
74922;SDS011;64715;44.760;37.678;2023-03-01T04:18:34;21.77;;;7.07;;
74922;SDS011;64715;44.760;37.678;2023-03-01T04:19:35;28.50;;;8.60;;
74922;SDS011;64715;44.760;37.678;2023-03-01T04:20:36;21.13;;;7.10;;
74922;SDS011;64715;44.760;37.678;2023-03-01T04:21:38;28.80;;;8.02;;
74922;SDS011;64715;44.760;37.678;2023-03-01T04:22:40;18.38;;;6.22;;
74922;SDS011;64715;44.760;37.678;2023-03-01T04:23:42;21.40;;;7.37;;
74922;SDS011;64715;44.760;37.678;2023-03-01T04:24:44;22.67;;;6.88;;
74922;SDS011;64715;44.760;37.678;2023-03-01T04:25:52;19.25;;;6.75;;
74922;SDS011;64715;44.760;37.678;2023-03-01T04:26:55;23.35;;;7.07;;
74922;SDS011;64715;44.760;37.678;2023-03-01T04:27:56;41.15;;;8.20;;
74922;SDS011;64715;44.760;37.678;2023-03-01T04:28:57;45.13;;;10.38;;
74922;SDS011;64715;44.760;37.678;2023-03-01T04:29:58;21.65;;;6.95;;
74922;SDS011;64715;44.760;37.678;2023-03-01T04:31:02;22.53;;;7.07;;
74922;SDS011;64715;44.760;37.678;2023-03-01T04:32:13;21.42;;;7.50;;
74922;SDS011;64715;44.760;37.678;2023-03-01T04:33:16;23.52;;;7.45;;
74922;SDS011;64715;44.760;37.678;2023-03-01T04:34:18;23.40;;;7.10;;
74922;SDS011;64715;44.760;37.678;2023-03-01T04:35:20;22.17;;;6.78;;
74922;SDS011;64715;44.760;37.678;2023-03-01T04:36:25;21.30;;;7.03;;
74922;SDS011;64715;44.760;37.678;2023-03-01T04:37:27;19.85;;;7.05;;
74922;SDS011;64715;44.760;37.678;2023-03-01T04:38:29;23.38;;;6.32;;
74922;SDS011;64715;44.760;37.678;2023-03-01T04:39:30;20.90;;;7.00;;
74922;SDS011;64715;44.760;37.678;2023-03-01T04:40:33;19.80;;;6.32;;
74922;SDS011;64715;44.760;37.678;2023-03-01T04:41:34;22.35;;;6.85;;
74922;SDS011;64715;44.760;37.678;2023-03-01T04:42:35;20.05;;;6.63;;
74922;SDS011;64715;44.760;37.678;2023-03-01T04:43:36;25.42;;;7.60;;
74922;SDS011;64715;44.760;37.678;2023-03-01T04:44:38;18.27;;;6.03;;
74922;SDS011;64715;44.760;37.678;2023-03-01T04:45:39;21.63;;;7.22;;
74922;SDS011;64715;44.760;37.678;2023-03-01T04:46:40;20.30;;;6.80;;
74922;SDS011;64715;44.760;37.678;2023-03-01T04:47:42;21.00;;;6.70;;
74922;SDS011;64715;44.760;37.678;2023-03-01T04:48:47;21.25;;;7.05;;
74922;SDS011;64715;44.760;37.678;2023-03-01T04:49:48;35.22;;;8.27;;
74922;SDS011;64715;44.760;37.678;2023-03-01T04:50:49;29.63;;;8.00;;
74922;SDS011;64715;44.760;37.678;2023-03-01T04:51:50;23.85;;;7.07;;
74922;SDS011;64715;44.760;37.678;2023-03-01T04:52:51;20.92;;;7.03;;
74922;SDS011;64715;44.760;37.678;2023-03-01T04:53:52;23.48;;;7.15;;
74922;SDS011;64715;44.760;37.678;2023-03-01T04:54:53;18.73;;;6.78;;
74922;SDS011;64715;44.760;37.678;2023-03-01T04:55:55;22.67;;;6.87;;
74922;SDS011;64715;44.760;37.678;2023-03-01T04:56:57;21.40;;;7.38;;
74922;SDS011;64715;44.760;37.678;2023-03-01T04:57:58;21.10;;;6.78;;
74922;SDS011;64715;44.760;37.678;2023-03-01T04:58:59;21.17;;;7.38;;
74922;SDS011;64715;44.760;37.678;2023-03-01T05:00:01;25.60;;;7.75;;
74922;SDS011;64715;44.760;37.678;2023-03-01T05:01:20;24.52;;;7.50;;
74922;SDS011;64715;44.760;37.678;2023-03-01T05:02:21;19.63;;;6.90;;
74922;SDS011;64715;44.760;37.678;2023-03-01T05:03:22;23.23;;;7.07;;
74922;SDS011;64715;44.760;37.678;2023-03-01T05:04:24;19.67;;;6.70;;
74922;SDS011;64715;44.760;37.678;2023-03-01T05:05:26;20.15;;;6.47;;
74922;SDS011;64715;44.760;37.678;2023-03-01T05:06:36;22.27;;;6.73;;
74922;SDS011;64715;44.760;37.678;2023-03-01T05:07:37;18.63;;;6.53;;
74922;SDS011;64715;44.760;37.678;2023-03-01T05:08:38;17.05;;;6.25;;
74922;SDS011;64715;44.760;37.678;2023-03-01T05:09:40;19.40;;;6.60;;
74922;SDS011;64715;44.760;37.678;2023-03-01T05:10:41;23.67;;;7.10;;
74922;SDS011;64715;44.760;37.678;2023-03-01T05:11:42;19.77;;;6.70;;
74922;SDS011;64715;44.760;37.678;2023-03-01T05:12:43;20.33;;;6.40;;
74922;SDS011;64715;44.760;37.678;2023-03-01T05:13:44;23.10;;;7.13;;
74922;SDS011;64715;44.760;37.678;2023-03-01T05:14:46;19.30;;;6.53;;
74922;SDS011;64715;44.760;37.678;2023-03-01T05:15:53;22.33;;;6.40;;
74922;SDS011;64715;44.760;37.678;2023-03-01T05:17:03;15.70;;;5.72;;
74922;SDS011;64715;44.760;37.678;2023-03-01T05:18:04;19.65;;;6.47;;
74922;SDS011;64715;44.760;37.678;2023-03-01T05:19:11;17.73;;;6.30;;
74922;SDS011;64715;44.760;37.678;2023-03-01T05:20:17;19.42;;;6.53;;
74922;SDS011;64715;44.760;37.678;2023-03-01T05:21:18;17.08;;;6.28;;
74922;SDS011;64715;44.760;37.678;2023-03-01T05:22:19;15.77;;;5.37;;
74922;SDS011;64715;44.760;37.678;2023-03-01T05:23:19;16.45;;;5.78;;
74922;SDS011;64715;44.760;37.678;2023-03-01T05:24:20;20.23;;;7.28;;
74922;SDS011;64715;44.760;37.678;2023-03-01T05:25:22;18.48;;;7.05;;
74922;SDS011;64715;44.760;37.678;2023-03-01T05:26:23;19.00;;;6.00;;
74922;SDS011;64715;44.760;37.678;2023-03-01T05:27:28;18.70;;;5.57;;
74922;SDS011;64715;44.760;37.678;2023-03-01T05:28:30;17.55;;;6.35;;
74922;SDS011;64715;44.760;37.678;2023-03-01T05:29:31;18.83;;;7.03;;
74922;SDS011;64715;44.760;37.678;2023-03-01T05:30:35;19.80;;;7.00;;
74922;SDS011;64715;44.760;37.678;2023-03-01T05:31:36;15.77;;;5.72;;
74922;SDS011;64715;44.760;37.678;2023-03-01T05:32:48;17.08;;;6.50;;
74922;SDS011;64715;44.760;37.678;2023-03-01T05:33:55;17.58;;;6.60;;
74922;SDS011;64715;44.760;37.678;2023-03-01T05:34:56;17.75;;;6.60;;
74922;SDS011;64715;44.760;37.678;2023-03-01T05:35:59;16.70;;;6.05;;
74922;SDS011;64715;44.760;37.678;2023-03-01T05:37:00;18.58;;;6.50;;
74922;SDS011;64715;44.760;37.678;2023-03-01T05:38:02;17.17;;;6.03;;
74922;SDS011;64715;44.760;37.678;2023-03-01T05:39:03;18.42;;;6.38;;
74922;SDS011;64715;44.760;37.678;2023-03-01T05:40:05;17.88;;;6.80;;
74922;SDS011;64715;44.760;37.678;2023-03-01T05:41:13;17.88;;;6.25;;
74922;SDS011;64715;44.760;37.678;2023-03-01T05:42:15;18.05;;;6.07;;
74922;SDS011;64715;44.760;37.678;2023-03-01T05:43:16;17.35;;;5.95;;
74922;SDS011;64715;44.760;37.678;2023-03-01T05:44:18;17.10;;;5.70;;
74922;SDS011;64715;44.760;37.678;2023-03-01T05:45:19;19.13;;;6.40;;
74922;SDS011;64715;44.760;37.678;2023-03-01T05:46:21;19.40;;;6.20;;
74922;SDS011;64715;44.760;37.678;2023-03-01T05:47:24;18.70;;;6.32;;
74922;SDS011;64715;44.760;37.678;2023-03-01T05:48:25;19.67;;;6.03;;
74922;SDS011;64715;44.760;37.678;2023-03-01T05:49:26;18.92;;;6.95;;
74922;SDS011;64715;44.760;37.678;2023-03-01T05:50:28;22.33;;;6.80;;
74922;SDS011;64715;44.760;37.678;2023-03-01T05:51:30;17.38;;;6.13;;
74922;SDS011;64715;44.760;37.678;2023-03-01T05:52:31;21.17;;;6.90;;
74922;SDS011;64715;44.760;37.678;2023-03-01T05:53:32;28.43;;;7.27;;
74922;SDS011;64715;44.760;37.678;2023-03-01T05:54:33;20.70;;;6.93;;
74922;SDS011;64715;44.760;37.678;2023-03-01T05:55:35;21.75;;;6.88;;
74922;SDS011;64715;44.760;37.678;2023-03-01T05:56:36;21.55;;;7.68;;
74922;SDS011;64715;44.760;37.678;2023-03-01T05:57:37;22.25;;;7.63;;
74922;SDS011;64715;44.760;37.678;2023-03-01T05:58:39;21.30;;;6.93;;
74922;SDS011;64715;44.760;37.678;2023-03-01T05:59:40;20.35;;;7.97;;
74922;SDS011;64715;44.760;37.678;2023-03-01T06:00:41;19.65;;;7.43;;
74922;SDS011;64715;44.760;37.678;2023-03-01T06:01:43;22.85;;;7.90;;
74922;SDS011;64715;44.760;37.678;2023-03-01T06:02:45;22.60;;;7.50;;
74922;SDS011;64715;44.760;37.678;2023-03-01T06:03:46;20.63;;;7.72;;
74922;SDS011;64715;44.760;37.678;2023-03-01T06:04:47;21.55;;;7.43;;
74922;SDS011;64715;44.760;37.678;2023-03-01T06:05:48;21.00;;;7.47;;
74922;SDS011;64715;44.760;37.678;2023-03-01T06:06:49;19.07;;;6.67;;
74922;SDS011;64715;44.760;37.678;2023-03-01T06:07:50;21.30;;;7.65;;
74922;SDS011;64715;44.760;37.678;2023-03-01T06:08:51;23.48;;;8.35;;
74922;SDS011;64715;44.760;37.678;2023-03-01T06:09:53;22.67;;;8.27;;
74922;SDS011;64715;44.760;37.678;2023-03-01T06:10:54;22.05;;;7.45;;
74922;SDS011;64715;44.760;37.678;2023-03-01T06:11:56;20.77;;;7.78;;
74922;SDS011;64715;44.760;37.678;2023-03-01T06:12:57;19.85;;;7.50;;
74922;SDS011;64715;44.760;37.678;2023-03-01T06:13:58;23.13;;;8.75;;
74922;SDS011;64715;44.760;37.678;2023-03-01T06:14:59;22.57;;;8.33;;
74922;SDS011;64715;44.760;37.678;2023-03-01T06:16:01;18.58;;;7.45;;